Time;durP1;ratioP1;P1;durP2;ratioP2;P2;SDS_P1;SDS_P2;PMS_P1;PMS_P2;Temp;Humidity;BMP_temperature;BMP_pressure;BME280_temperature;BME280_humidity;BME280_pressure;Samples;Min_cycle;Max_cycle;Signal;HPM_P1;HPM_P2
2022/04/20 00:00:42;;;;;;;5.53;3.00;;;;;;;;;;4982525;28;20097;-76
2022/04/20 00:03:08;;;;;;;5.32;3.22;;;;;;;;;;4978064;28;20049;-77
2022/04/20 00:05:34;;;;;;;6.38;2.95;;;;;;;;;;4981151;28;20043;-75
2022/04/20 00:08:01;;;;;;;5.78;3.10;;;;;;;;;;4965091;28;20064;-76
2022/04/20 00:10:28;;;;;;;5.80;3.28;;;;;;;;;;4965312;28;20034;-76
2022/04/20 00:12:54;;;;;;;6.22;3.65;;;;;;;;;;4965075;28;20041;-75
2022/04/20 00:15:20;;;;;;;6.15;3.20;;;;;;;;;;4962886;28;20479;-75
2022/04/20 00:17:46;;;;;;;5.65;3.22;;;;;;;;;;4966807;28;20046;-76
2022/04/20 00:20:12;;;;;;;5.70;3.42;;;;;;;;;;4982069;28;20554;-74
2022/04/20 00:22:38;;;;;;;9.30;3.53;;;;;;;;;;4965264;28;20046;-75
2022/04/20 00:25:04;;;;;;;6.40;3.08;;;;;;;;;;4964862;28;20053;-74
2022/04/20 00:27:35;;;;;;;5.53;3.35;;;;;;;;;;4980490;28;20035;-77
2022/04/20 00:30:02;;;;;;;8.70;3.75;;;;;;;;;;4980305;28;20085;-76
2022/04/20 00:32:29;;;;;;;5.18;3.13;;;;;;;;;;4962274;28;20062;-75
2022/04/20 00:34:55;;;;;;;8.38;3.47;;;;;;;;;;4981332;28;20047;-76
2022/04/20 00:37:21;;;;;;;6.07;3.25;;;;;;;;;;4964502;28;20061;-74
2022/04/20 00:39:47;;;;;;;7.80;3.45;;;;;;;;;;4963049;28;20251;-76
2022/04/20 00:42:13;;;;;;;6.90;3.58;;;;;;;;;;4962743;28;20053;-73
2022/04/20 00:44:40;;;;;;;5.53;3.53;;;;;;;;;;4964323;28;20070;-74
2022/04/20 00:47:07;;;;;;;4.88;3.05;;;;;;;;;;4977000;28;20090;-74
2022/04/20 00:49:34;;;;;;;7.22;3.15;;;;;;;;;;4978895;28;20042;-75
2022/04/20 00:52:01;;;;;;;9.63;4.28;;;;;;;;;;4977714;28;20037;-75
2022/04/20 00:54:27;;;;;;;7.88;3.70;;;;;;;;;;4981748;28;20061;-76
2022/04/20 00:56:53;;;;;;;5.90;3.10;;;;;;;;;;4966170;28;20479;-74
2022/04/20 00:59:20;;;;;;;5.20;3.35;;;;;;;;;;4981491;28;20042;-75
2022/04/20 01:01:46;;;;;;;5.43;3.45;;;;;;;;;;4966869;28;20528;-75
2022/04/20 01:04:13;;;;;;;4.78;2.92;;;;;;;;;;4981326;28;20038;-74
2022/04/20 01:06:39;;;;;;;5.07;3.03;;;;;;;;;;4966084;28;20045;-76
2022/04/20 01:09:05;;;;;;;5.97;3.42;;;;;;;;;;4980600;28;20065;-74
2022/04/20 01:11:31;;;;;;;10.57;3.58;;;;;;;;;;4965300;28;20121;-74
2022/04/20 01:13:57;;;;;;;5.07;3.30;;;;;;;;;;4979972;28;20195;-77
2022/04/20 01:16:24;;;;;;;6.68;3.50;;;;;;;;;;4965842;28;20490;-75
2022/04/20 01:18:51;;;;;;;8.35;3.30;;;;;;;;;;4964595;28;20137;-74
2022/04/20 01:21:17;;;;;;;6.07;3.05;;;;;;;;;;4981263;28;20129;-74
2022/04/20 01:23:43;;;;;;;6.38;3.70;;;;;;;;;;4980907;28;20042;-75
2022/04/20 01:26:09;;;;;;;6.97;3.30;;;;;;;;;;4980329;28;20046;-76
2022/04/20 01:28:35;;;;;;;6.32;3.42;;;;;;;;;;4979353;28;20050;-74
2022/04/20 01:31:02;;;;;;;7.05;3.28;;;;;;;;;;4963939;28;20042;-74
2022/04/20 01:33:28;;;;;;;7.13;3.72;;;;;;;;;;4962507;28;20078;-75
2022/04/20 01:35:54;;;;;;;6.15;3.72;;;;;;;;;;4962398;28;20089;-74
2022/04/20 01:38:20;;;;;;;8.48;3.67;;;;;;;;;;4978571;28;20402;-75
2022/04/20 01:40:45;;;;;;;6.28;3.17;;;;;;;;;;4978570;28;20074;-74
2022/04/20 01:43:11;;;;;;;7.30;3.40;;;;;;;;;;4962726;28;20034;-74
2022/04/20 01:45:37;;;;;;;6.85;3.22;;;;;;;;;;4962150;28;20884;-74
2022/04/20 01:48:03;;;;;;;8.32;3.40;;;;;;;;;;4962478;28;20133;-74
2022/04/20 01:50:30;;;;;;;5.15;3.25;;;;;;;;;;4978383;28;20038;-74
2022/04/20 01:52:56;;;;;;;7.05;3.25;;;;;;;;;;4962572;28;20053;-74
2022/04/20 01:55:22;;;;;;;5.47;3.20;;;;;;;;;;4962062;28;20042;-74
2022/04/20 01:57:48;;;;;;;9.02;3.25;;;;;;;;;;4962442;28;20080;-74
2022/04/20 02:00:16;;;;;;;5.75;3.22;;;;;;;;;;4962234;28;20042;-74
2022/04/20 02:02:42;;;;;;;4.60;2.85;;;;;;;;;;4977878;28;20085;-74
2022/04/20 02:05:11;;;;;;;10.52;3.20;;;;;;;;;;4961809;28;20141;-75
2022/04/20 02:07:36;;;;;;;5.55;3.03;;;;;;;;;;4978331;28;20380;-74
2022/04/20 02:10:03;;;;;;;5.95;3.78;;;;;;;;;;4961842;28;20049;-74
2022/04/20 02:12:29;;;;;;;5.57;3.22;;;;;;;;;;4962060;28;20034;-74
2022/04/20 02:14:56;;;;;;;6.03;3.42;;;;;;;;;;4978105;28;20050;-74
2022/04/20 02:17:22;;;;;;;8.80;3.22;;;;;;;;;;4977750;28;20042;-74
2022/04/20 02:19:48;;;;;;;10.27;3.97;;;;;;;;;;4961817;28;20251;-74
2022/04/20 02:22:14;;;;;;;6.30;3.35;;;;;;;;;;4977617;28;20042;-74
2022/04/20 02:24:40;;;;;;;3.95;2.40;;;;;;;;;;4977467;28;20042;-74
2022/04/20 02:27:08;;;;;;;5.55;3.35;;;;;;;;;;4977665;28;20505;-74
2022/04/20 02:29:34;;;;;;;3.60;2.92;;;;;;;;;;4960883;28;20069;-73
2022/04/20 02:32:00;;;;;;;9.63;3.58;;;;;;;;;;4977483;28;20047;-75
2022/04/20 02:34:26;;;;;;;7.47;2.92;;;;;;;;;;4978059;28;20049;-74
2022/04/20 02:36:52;;;;;;;5.28;2.80;;;;;;;;;;4978589;28;20049;-75
2022/04/20 02:39:19;;;;;;;7.82;3.35;;;;;;;;;;4978226;28;20553;-73
2022/04/20 02:41:45;;;;;;;5.57;3.35;;;;;;;;;;4961300;28;20042;-74
2022/04/20 02:44:11;;;;;;;4.72;3.33;;;;;;;;;;4977256;28;20038;-74
2022/04/20 02:46:37;;;;;;;6.53;3.47;;;;;;;;;;4960669;28;20038;-74
2022/04/20 02:49:03;;;;;;;6.38;3.90;;;;;;;;;;4961373;28;20129;-74
2022/04/20 02:51:29;;;;;;;4.93;3.20;;;;;;;;;;4977085;28;20447;-74
2022/04/20 02:53:55;;;;;;;6.90;3.42;;;;;;;;;;4961128;28;20042;-74
2022/04/20 02:56:21;;;;;;;6.68;3.00;;;;;;;;;;4961021;28;20049;-74
2022/04/20 02:58:47;;;;;;;6.90;3.70;;;;;;;;;;4961187;28;20046;-74
2022/04/20 03:01:13;;;;;;;8.77;3.83;;;;;;;;;;4977312;28;20038;-73
2022/04/20 03:03:39;;;;;;;6.38;2.67;;;;;;;;;;4960982;28;20068;-74
2022/04/20 03:06:05;;;;;;;5.93;3.13;;;;;;;;;;4961314;28;20073;-75
2022/04/20 03:08:31;;;;;;;4.78;2.50;;;;;;;;;;4961188;28;20034;-74
2022/04/20 03:10:57;;;;;;;5.43;2.83;;;;;;;;;;4961035;28;20056;-73
2022/04/20 03:13:23;;;;;;;3.75;2.72;;;;;;;;;;4976947;28;20042;-74
2022/04/20 03:15:49;;;;;;;7.00;3.60;;;;;;;;;;4976474;28;20784;-74
2022/04/20 03:18:15;;;;;;;6.18;2.90;;;;;;;;;;4976784;28;20101;-74
2022/04/20 03:20:41;;;;;;;4.75;2.88;;;;;;;;;;4960579;28;20707;-73
2022/04/20 03:23:07;;;;;;;4.80;3.17;;;;;;;;;;4976557;28;20085;-74
2022/04/20 03:25:33;;;;;;;9.15;3.35;;;;;;;;;;4960613;28;20517;-74
2022/04/20 03:27:59;;;;;;;9.20;3.72;;;;;;;;;;4976765;28;20066;-74
2022/04/20 03:30:27;;;;;;;6.55;3.55;;;;;;;;;;4976375;28;20062;-74
2022/04/20 03:32:53;;;;;;;4.72;3.30;;;;;;;;;;4976326;28;20479;-74
2022/04/20 03:35:19;;;;;;;6.18;3.30;;;;;;;;;;4960379;28;20046;-74
2022/04/20 03:37:45;;;;;;;7.38;3.33;;;;;;;;;;4976601;28;20084;-73
2022/04/20 03:40:11;;;;;;;6.93;3.92;;;;;;;;;;4975925;28;20042;-74
2022/04/20 03:42:37;;;;;;;7.78;3.95;;;;;;;;;;4976337;28;20042;-73
2022/04/20 03:45:04;;;;;;;7.20;4.30;;;;;;;;;;4959853;28;20527;-74
2022/04/20 03:47:30;;;;;;;5.82;3.33;;;;;;;;;;4960270;28;20034;-74
2022/04/20 03:49:56;;;;;;;6.97;3.60;;;;;;;;;;4976236;28;20046;-74
2022/04/20 03:52:21;;;;;;;6.53;3.95;;;;;;;;;;4977107;28;20827;-73
2022/04/20 03:54:47;;;;;;;6.45;3.80;;;;;;;;;;4960279;28;20048;-75
2022/04/20 03:57:13;;;;;;;10.27;3.45;;;;;;;;;;4976165;28;20483;-74
2022/04/20 03:59:40;;;;;;;7.93;4.07;;;;;;;;;;4961157;28;20042;-74
2022/04/20 04:02:06;;;;;;;6.78;3.50;;;;;;;;;;4976845;28;20129;-74
2022/04/20 04:04:32;;;;;;;6.03;3.75;;;;;;;;;;4977139;28;20046;-74
2022/04/20 04:06:59;;;;;;;6.95;3.47;;;;;;;;;;4978283;28;20088;-74
2022/04/20 04:09:25;;;;;;;8.38;3.38;;;;;;;;;;4961415;28;20045;-75
2022/04/20 04:11:51;;;;;;;5.78;3.50;;;;;;;;;;4977501;28;20042;-76
2022/04/20 04:14:17;;;;;;;5.53;3.00;;;;;;;;;;4976100;28;20049;-74
2022/04/20 04:16:44;;;;;;;6.68;2.92;;;;;;;;;;4977732;28;20693;-76
2022/04/20 04:19:11;;;;;;;5.55;3.03;;;;;;;;;;4961796;28;20053;-75
2022/04/20 04:21:40;;;;;;;6.75;3.15;;;;;;;;;;4976505;28;20105;-74
2022/04/20 04:24:07;;;;;;;9.30;3.25;;;;;;;;;;4977624;28;20066;-74
2022/04/20 04:26:33;;;;;;;5.93;3.45;;;;;;;;;;4960055;28;20065;-74
2022/04/20 04:28:59;;;;;;;5.30;3.88;;;;;;;;;;4976002;28;20058;-75
2022/04/20 04:31:26;;;;;;;6.57;3.33;;;;;;;;;;4960413;28;20053;-74
2022/04/20 04:33:52;;;;;;;7.72;4.00;;;;;;;;;;4977207;28;20046;-75
2022/04/20 04:36:18;;;;;;;8.65;3.80;;;;;;;;;;4960329;28;20043;-74
2022/04/20 04:38:44;;;;;;;10.38;3.80;;;;;;;;;;4960095;28;20038;-74
2022/04/20 04:41:10;;;;;;;6.35;3.47;;;;;;;;;;4975834;28;20487;-74
2022/04/20 04:43:36;;;;;;;5.53;3.42;;;;;;;;;;4960096;28;20046;-74
2022/04/20 04:48:48;;;;;;;5.25;3.10;;;;;;;;;;4976275;28;20046;-74
2022/04/20 04:51:15;;;;;;;5.50;3.08;;;;;;;;;;4959716;28;20038;-73
2022/04/20 04:53:41;;;;;;;7.90;3.78;;;;;;;;;;4959343;28;20038;-73
2022/04/20 04:56:07;;;;;;;4.40;2.97;;;;;;;;;;4959398;28;20451;-73
2022/04/20 04:58:33;;;;;;;6.18;3.53;;;;;;;;;;4975188;28;20038;-73
2022/04/20 05:00:59;;;;;;;8.35;3.83;;;;;;;;;;4975205;28;20554;-73
2022/04/20 05:03:25;;;;;;;6.28;3.72;;;;;;;;;;4959816;28;20042;-72
2022/04/20 05:05:52;;;;;;;6.47;3.67;;;;;;;;;;4975216;28;20042;-74
2022/04/20 05:08:18;;;;;;;5.85;3.72;;;;;;;;;;4959373;28;20046;-74
2022/04/20 05:10:44;;;;;;;7.32;4.28;;;;;;;;;;4959174;28;20094;-74
2022/04/20 05:13:10;;;;;;;5.88;3.20;;;;;;;;;;4959436;28;20038;-74
2022/04/20 05:15:36;;;;;;;6.85;3.92;;;;;;;;;;4959173;28;20106;-73
2022/04/20 05:18:02;;;;;;;7.65;3.55;;;;;;;;;;4975712;28;20471;-75
2022/04/20 05:20:28;;;;;;;6.15;3.20;;;;;;;;;;4959112;28;20038;-74
2022/04/20 05:22:55;;;;;;;6.47;3.75;;;;;;;;;;4975458;28;20078;-74
2022/04/20 05:25:21;;;;;;;6.28;3.40;;;;;;;;;;4959075;28;20862;-74
2022/04/20 05:27:47;;;;;;;6.55;3.58;;;;;;;;;;4975414;28;20038;-74
2022/04/20 05:30:14;;;;;;;5.32;3.40;;;;;;;;;;4959035;28;20058;-75
2022/04/20 05:32:41;;;;;;;6.68;3.55;;;;;;;;;;4975348;28;20046;-73
2022/04/20 05:35:07;;;;;;;6.28;3.72;;;;;;;;;;4976746;28;20054;-74
2022/04/20 05:43:02;;;;;;;5.07;3.45;;;;;;;;;;4978036;28;20057;-75
2022/04/20 05:45:28;;;;;;;5.63;3.85;;;;;;;;;;4962184;28;20042;-75
2022/04/20 05:47:54;;;;;;;5.47;3.35;;;;;;;;;;4962364;28;20631;-74
2022/04/20 05:50:20;;;;;;;9.55;4.15;;;;;;;;;;4979157;28;20078;-75
2022/04/20 05:52:46;;;;;;;6.50;3.83;;;;;;;;;;4978760;28;20034;-75
2022/04/20 05:55:12;;;;;;;6.32;3.67;;;;;;;;;;4964379;28;20112;-76
2022/04/20 05:57:38;;;;;;;5.13;3.42;;;;;;;;;;4966785;28;20046;-76
2022/04/20 06:00:05;;;;;;;8.68;3.72;;;;;;;;;;4973149;28;20054;-76
2022/04/20 06:02:34;;;;;;;5.95;3.05;;;;;;;;;;4947790;28;20041;-75
2022/04/20 06:05:00;;;;;;;4.32;2.90;;;;;;;;;;4948517;28;20035;-75
2022/04/20 06:07:26;;;;;;;6.82;3.53;;;;;;;;;;4962606;28;20107;-76
2022/04/20 06:09:52;;;;;;;4.68;2.83;;;;;;;;;;4945542;28;20039;-76
2022/04/20 06:12:21;;;;;;;6.15;3.28;;;;;;;;;;4947585;28;20046;-77
2022/04/20 06:14:47;;;;;;;5.43;3.85;;;;;;;;;;4964644;28;20038;-75
2022/04/20 06:17:14;;;;;;;3.58;2.53;;;;;;;;;;4945247;28;20039;-78
2022/04/20 06:19:40;;;;;;;4.82;3.08;;;;;;;;;;4947973;28;20057;-77
2022/04/20 06:22:06;;;;;;;6.75;3.78;;;;;;;;;;4944961;28;20042;-75
2022/04/20 06:24:32;;;;;;;7.22;3.60;;;;;;;;;;4964915;28;20042;-76
2022/04/20 06:26:58;;;;;;;12.15;4.20;;;;;;;;;;4961334;28;20039;-78
2022/04/20 06:29:24;;;;;;;7.55;3.83;;;;;;;;;;4957013;28;20099;-77
2022/04/20 06:31:51;;;;;;;6.30;3.53;;;;;;;;;;4946373;28;20040;-78
2022/04/20 06:34:18;;;;;;;5.90;3.42;;;;;;;;;;4969951;28;20042;-77
2022/04/20 06:36:44;;;;;;;5.90;4.10;;;;;;;;;;4947872;28;20034;-80
2022/04/20 06:39:10;;;;;;;7.65;3.30;;;;;;;;;;4945272;28;20042;-76
2022/04/20 06:41:36;;;;;;;6.95;3.85;;;;;;;;;;4961004;28;20110;-79
2022/04/20 06:44:02;;;;;;;5.68;3.30;;;;;;;;;;4946250;28;20066;-79
2022/04/20 06:46:28;;;;;;;7.70;4.10;;;;;;;;;;4944210;28;20125;-78
2022/04/20 06:48:55;;;;;;;7.20;3.47;;;;;;;;;;4972045;28;20039;-79
2022/04/20 06:51:21;;;;;;;5.53;3.33;;;;;;;;;;4946016;28;20062;-76
2022/04/20 06:59:17;;;;;;;4.25;3.28;;;;;;;;;;4959128;28;20042;-76
2022/04/20 07:01:43;;;;;;;5.53;3.60;;;;;;;;;;4943769;28;20585;-76
2022/04/20 07:04:09;;;;;;;6.45;3.40;;;;;;;;;;4962959;28;20043;-77
2022/04/20 07:06:35;;;;;;;4.80;3.70;;;;;;;;;;4970971;28;20129;-76
2022/04/20 07:09:01;;;;;;;4.93;3.53;;;;;;;;;;4958857;28;20138;-77
2022/04/20 07:11:28;;;;;;;4.38;3.00;;;;;;;;;;4967180;28;20042;-77
2022/04/20 07:13:55;;;;;;;6.90;4.53;;;;;;;;;;4960606;28;20058;-78
2022/04/20 07:16:21;;;;;;;4.57;4.18;;;;;;;;;;4968107;28;20518;-76
2022/04/20 07:18:47;;;;;;;4.28;3.35;;;;;;;;;;4958514;28;20039;-79
2022/04/20 07:21:12;;;;;;;7.50;4.47;;;;;;;;;;4943279;28;20051;-77
2022/04/20 07:23:38;;;;;;;5.57;4.28;;;;;;;;;;4968846;28;20058;-77
2022/04/20 07:26:04;;;;;;;4.43;4.03;;;;;;;;;;4943515;28;20031;-76
2022/04/20 07:28:31;;;;;;;7.47;4.63;;;;;;;;;;4963744;28;20058;-77
2022/04/20 07:30:57;;;;;;;4.82;4.32;;;;;;;;;;4988086;28;20034;-78
2022/04/20 07:33:24;;;;;;;4.38;3.80;;;;;;;;;;4960124;28;20065;-78
2022/04/20 07:35:50;;;;;;;5.13;4.53;;;;;;;;;;4978103;28;20039;-78
2022/04/20 07:38:16;;;;;;;5.18;4.32;;;;;;;;;;4978081;28;20125;-77
2022/04/20 07:40:42;;;;;;;4.72;3.92;;;;;;;;;;4988809;28;20062;-76
2022/04/20 07:43:08;;;;;;;4.68;3.90;;;;;;;;;;4988122;28;20121;-77
2022/04/20 07:45:34;;;;;;;6.75;3.60;;;;;;;;;;4964663;28;20046;-80
2022/04/20 07:48:00;;;;;;;4.63;3.72;;;;;;;;;;4959105;28;20106;-78
2022/04/20 07:50:26;;;;;;;4.35;3.53;;;;;;;;;;4975843;28;20046;-77
2022/04/20 07:52:53;;;;;;;3.40;3.10;;;;;;;;;;4983592;28;20564;-77
2022/04/20 07:55:24;;;;;;;6.25;3.45;;;;;;;;;;4963831;28;20049;-78
2022/04/20 07:57:50;;;;;;;5.68;3.40;;;;;;;;;;4987882;28;20532;-79
2022/04/20 08:00:17;;;;;;;3.10;2.80;;;;;;;;;;4978971;28;20057;-76
2022/04/20 08:02:44;;;;;;;4.00;2.80;;;;;;;;;;4977705;28;20449;-77
2022/04/20 08:05:10;;;;;;;3.38;2.90;;;;;;;;;;4987954;28;20164;-76
2022/04/20 08:07:36;;;;;;;4.88;3.05;;;;;;;;;;4960368;28;20108;-77
2022/04/20 08:10:04;;;;;;;4.85;2.90;;;;;;;;;;4960860;28;20403;-79
2022/04/20 08:12:44;;;;;;;5.78;2.95;;;;;;;;;;4975321;28;20038;-80
2022/04/20 08:15:11;;;;;;;5.45;2.72;;;;;;;;;;4960940;28;20178;-79
2022/04/20 08:17:37;;;;;;;2.75;2.50;;;;;;;;;;4959240;28;20549;-78
2022/04/20 08:20:04;;;;;;;4.35;2.67;;;;;;;;;;4980857;28;20038;-77
2022/04/20 08:22:30;;;;;;;4.25;2.80;;;;;;;;;;4976321;28;20559;-78
2022/04/20 08:24:56;;;;;;;4.40;2.58;;;;;;;;;;4966799;28;20131;-77
2022/04/20 08:27:23;;;;;;;4.28;2.88;;;;;;;;;;4980710;28;20116;-77
2022/04/20 08:29:50;;;;;;;2.60;2.40;;;;;;;;;;4978322;28;20058;-81
2022/04/20 08:32:16;;;;;;;3.50;2.28;;;;;;;;;;4961072;28;20108;-77
2022/04/20 08:34:43;;;;;;;2.90;2.05;;;;;;;;;;4985804;28;20046;-77
2022/04/20 08:37:09;;;;;;;3.65;2.40;;;;;;;;;;4975796;28;20069;-78
2022/04/20 08:39:35;;;;;;;5.03;2.50;;;;;;;;;;4964207;28;20494;-79
2022/04/20 08:42:01;;;;;;;2.50;2.30;;;;;;;;;;4989048;28;20038;-78
2022/04/20 08:44:28;;;;;;;2.63;2.38;;;;;;;;;;4978154;28;20053;-80
2022/04/20 08:46:55;;;;;;;2.22;2.00;;;;;;;;;;4978977;28;20045;-79
2022/04/20 08:49:22;;;;;;;2.80;2.15;;;;;;;;;;4972612;28;20093;-79
2022/04/20 08:54:34;;;;;;;4.50;1.90;;;;;;;;;;4978484;28;20053;-79
2022/04/20 08:57:16;;;;;;;4.13;1.75;;;;;;;;;;4961937;28;20475;-78
2022/04/20 08:59:48;;;;;;;3.30;2.13;;;;;;;;;;4975515;28;20048;-79
2022/04/20 09:02:14;;;;;;;7.47;2.10;;;;;;;;;;4977064;28;20043;-79
2022/04/20 09:04:41;;;;;;;2.10;1.70;;;;;;;;;;4963400;28;20035;-78
2022/04/20 09:07:07;;;;;;;1.95;1.80;;;;;;;;;;4978584;28;20050;-77
2022/04/20 09:09:33;;;;;;;2.00;1.80;;;;;;;;;;4964555;28;20043;-78
2022/04/20 09:12:00;;;;;;;2.33;2.10;;;;;;;;;;4965077;28;20464;-79
2022/04/20 09:14:29;;;;;;;2.80;2.08;;;;;;;;;;4965772;28;20049;-78
2022/04/20 09:16:56;;;;;;;2.20;1.85;;;;;;;;;;4983526;28;20054;-80
2022/04/20 09:19:26;;;;;;;2.78;2.13;;;;;;;;;;4967744;28;20108;-79
2022/04/20 09:21:54;;;;;;;2.70;1.92;;;;;;;;;;4983452;28;20150;-79
2022/04/20 09:24:21;;;;;;;2.45;2.00;;;;;;;;;;4966240;28;20168;-78
2022/04/20 09:26:59;;;;;;;3.28;1.95;;;;;;;;;;4984139;28;20046;-78
2022/04/20 09:29:25;;;;;;;2.70;2.25;;;;;;;;;;4964459;28;20101;-77
2022/04/20 09:31:51;;;;;;;2.22;2.03;;;;;;;;;;4965774;28;20041;-78
2022/04/20 09:34:32;;;;;;;2.15;1.95;;;;;;;;;;4969507;28;20053;-77
2022/04/20 09:36:58;;;;;;;2.95;1.63;;;;;;;;;;4984008;28;20502;-76
2022/04/20 09:39:30;;;;;;;2.15;1.30;;;;;;;;;;4965351;28;20104;-82
2022/04/20 09:42:01;;;;;;;2.50;1.50;;;;;;;;;;4966517;28;20046;-80
2022/04/20 09:44:27;;;;;;;4.25;1.50;;;;;;;;;;4966358;28;20046;-79
2022/04/20 09:49:52;;;;;;;2.20;1.40;;;;;;;;;;4980783;28;20039;-78
2022/04/20 09:52:18;;;;;;;3.22;1.42;;;;;;;;;;4965695;28;20038;-78
2022/04/20 09:54:49;;;;;;;3.28;1.52;;;;;;;;;;4981721;28;20046;-78
2022/04/20 09:57:15;;;;;;;3.92;1.75;;;;;;;;;;4967702;28;20129;-78
2022/04/20 10:00:01;;;;;;;2.10;1.50;;;;;;;;;;4967181;28;20070;-75
2022/04/20 10:02:29;;;;;;;2.25;1.42;;;;;;;;;;4983044;28;20074;-78
2022/04/20 10:04:56;;;;;;;1.48;1.15;;;;;;;;;;4968581;28;20042;-78
2022/04/20 10:07:24;;;;;;;9.15;1.90;;;;;;;;;;4984082;28;20042;-78
2022/04/20 10:09:50;;;;;;;2.65;1.52;;;;;;;;;;4966713;28;20051;-79
2022/04/20 10:12:17;;;;;;;2.28;1.80;;;;;;;;;;4984477;28;20479;-78
2022/04/20 10:17:29;;;;;;;1.67;1.48;;;;;;;;;;4982329;28;20054;-79
2022/04/20 10:19:55;;;;;;;3.20;1.65;;;;;;;;;;4964813;28;20045;-77
2022/04/20 10:22:21;;;;;;;4.07;1.50;;;;;;;;;;4982203;28;20174;-83
2022/04/20 10:24:51;;;;;;;2.47;1.02;;;;;;;;;;4963956;28;20046;-81
2022/04/20 10:27:28;;;;;;;2.67;1.42;;;;;;;;;;4966367;28;20046;-78
2022/04/20 10:29:56;;;;;;;2.80;1.52;;;;;;;;;;4964524;28;20046;-80
2022/04/20 10:32:24;;;;;;;2.75;1.52;;;;;;;;;;4963951;28;20122;-77
2022/04/20 10:34:50;;;;;;;3.35;1.60;;;;;;;;;;4986578;28;20110;-80
2022/04/20 10:37:25;;;;;;;2.13;1.35;;;;;;;;;;4981787;28;20045;-77
2022/04/20 10:39:55;;;;;;;2.25;1.42;;;;;;;;;;4963431;28;20068;-78
2022/04/20 10:42:25;;;;;;;2.60;1.10;;;;;;;;;;4986089;28;20034;-79
2022/04/20 10:45:03;;;;;;;3.40;1.70;;;;;;;;;;4987255;28;20035;-80
2022/04/20 10:47:29;;;;;;;2.25;1.55;;;;;;;;;;4956661;28;20047;-79
2022/04/20 10:50:12;;;;;;;2.05;1.55;;;;;;;;;;4986281;28;20487;-76
2022/04/20 10:52:39;;;;;;;1.65;1.20;;;;;;;;;;4960394;28;20078;-80
2022/04/20 10:55:05;;;;;;;2.00;1.40;;;;;;;;;;4959638;28;20553;-78
2022/04/20 10:57:35;;;;;;;3.25;1.48;;;;;;;;;;4962724;28;20038;-79
2022/04/20 11:00:30;;;;;;;1.93;1.70;;;;;;;;;;4961214;28;20403;-80
2022/04/20 11:03:03;;;;;;;4.40;1.48;;;;;;;;;;4944050;28;20282;-78
2022/04/20 11:05:30;;;;;;;1.50;1.40;;;;;;;;;;4986190;28;20376;-77
2022/04/20 11:08:06;;;;;;;1.48;1.10;;;;;;;;;;4987040;28;20512;-79
2022/04/20 11:10:32;;;;;;;3.03;1.17;;;;;;;;;;4978502;28;20039;-80
2022/04/20 11:19:03;;;;;;;1.67;1.13;;;;;;;;;;4975687;28;20121;-79
2022/04/20 11:21:30;;;;;;;1.30;1.20;;;;;;;;;;4979414;28;20121;-81
2022/04/20 11:23:59;;;;;;;2.90;1.42;;;;;;;;;;4988141;28;20030;-80
2022/04/20 11:26:41;;;;;;;3.97;1.42;;;;;;;;;;4979853;28;20050;-76
2022/04/20 11:29:11;;;;;;;1.80;1.45;;;;;;;;;;4963901;28;20058;-80
2022/04/20 11:31:58;;;;;;;2.15;1.30;;;;;;;;;;4973030;28;20128;-80
2022/04/20 11:34:26;;;;;;;2.22;1.70;;;;;;;;;;4988618;28;20053;-78
2022/04/20 11:36:53;;;;;;;2.55;1.20;;;;;;;;;;4969341;28;20053;-79
2022/04/20 11:39:20;;;;;;;2.83;1.30;;;;;;;;;;4989623;28;20073;-78
2022/04/20 11:41:47;;;;;;;4.43;1.38;;;;;;;;;;4972158;28;20045;-79
2022/04/20 11:44:23;;;;;;;2.88;1.30;;;;;;;;;;4990243;28;20042;-82
2022/04/20 11:47:01;;;;;;;1.70;1.33;;;;;;;;;;4971786;28;20117;-81
2022/04/20 11:49:38;;;;;;;1.85;1.40;;;;;;;;;;4988467;28;20073;-77
2022/04/20 11:52:08;;;;;;;2.50;2.20;;;;;;;;;;4969587;28;20125;-80
2022/04/20 11:54:35;;;;;;;2.13;1.45;;;;;;;;;;4968671;28;20042;-81
2022/04/20 11:57:01;;;;;;;1.92;1.67;;;;;;;;;;4990585;28;20128;-82
2022/04/20 11:59:29;;;;;;;1.85;1.33;;;;;;;;;;4970404;28;20109;-81
2022/04/20 12:01:55;;;;;;;2.03;1.50;;;;;;;;;;4972627;28;20041;-78
2022/04/20 12:04:25;;;;;;;1.83;1.42;;;;;;;;;;4973324;28;20042;-80
2022/04/20 12:06:53;;;;;;;1.52;1.40;;;;;;;;;;4971129;28;20479;-80
2022/04/20 12:09:22;;;;;;;1.35;1.25;;;;;;;;;;4971245;28;20038;-80
2022/04/20 12:11:51;;;;;;;1.92;1.40;;;;;;;;;;4969204;28;20042;-79
2022/04/20 12:14:20;;;;;;;4.35;1.45;;;;;;;;;;4971362;28;20085;-78
2022/04/20 12:16:47;;;;;;;2.00;1.20;;;;;;;;;;4967629;28;20057;-79
2022/04/20 12:19:13;;;;;;;1.65;1.40;;;;;;;;;;4984424;28;20048;-81
2022/04/20 12:21:40;;;;;;;1.10;1.00;;;;;;;;;;4967524;28;20048;-79
2022/04/20 12:24:07;;;;;;;1.83;1.33;;;;;;;;;;4973188;28;20045;-80
2022/04/20 12:26:33;;;;;;;1.35;1.25;;;;;;;;;;4977130;28;20173;-80
2022/04/20 12:29:00;;;;;;;1.00;0.80;;;;;;;;;;4961533;28;20058;-79
2022/04/20 12:31:26;;;;;;;2.35;1.20;;;;;;;;;;4959471;28;20062;-76
2022/04/20 12:34:02;;;;;;;2.30;1.48;;;;;;;;;;4976054;28;20085;-82
2022/04/20 12:36:31;;;;;;;2.67;1.30;;;;;;;;;;4961598;28;20050;-78
2022/04/20 12:38:57;;;;;;;1.83;1.40;;;;;;;;;;4959241;28;20138;-75
2022/04/20 12:41:41;;;;;;;1.52;1.40;;;;;;;;;;4958935;28;20517;-78
2022/04/20 12:44:26;;;;;;;1.98;1.50;;;;;;;;;;4956616;28;20050;-79
2022/04/20 12:46:52;;;;;;;1.52;1.42;;;;;;;;;;4956936;28;20038;-80
2022/04/20 12:49:25;;;;;;;2.72;1.38;;;;;;;;;;4988290;28;20030;-80
2022/04/20 12:51:51;;;;;;;2.72;1.77;;;;;;;;;;4965349;28;20129;-78
2022/04/20 12:54:25;;;;;;;1.67;1.38;;;;;;;;;;4979194;28;20491;-83
2022/04/20 13:02:22;;;;;;;1.92;1.63;;;;;;;;;;4975553;28;20388;-82
2022/04/20 13:04:49;;;;;;;1.77;1.52;;;;;;;;;;4987627;28;20038;-80
2022/04/20 13:07:15;;;;;;;3.05;2.17;;;;;;;;;;4980615;28;20042;-78
2022/04/20 13:09:41;;;;;;;1.92;1.73;;;;;;;;;;4963168;28;20042;-81
2022/04/20 13:12:07;;;;;;;3.22;1.98;;;;;;;;;;4979745;28;20038;-82
2022/04/20 13:14:33;;;;;;;2.83;1.70;;;;;;;;;;4961905;28;20050;-79
2022/04/20 13:16:59;;;;;;;1.05;0.95;;;;;;;;;;4985377;28;20053;-82
2022/04/20 13:19:25;;;;;;;3.78;1.88;;;;;;;;;;4963453;28;20100;-78
2022/04/20 13:21:51;;;;;;;3.97;2.17;;;;;;;;;;4988641;28;20045;-81
2022/04/20 13:27:54;;;;;;;4.40;1.17;;;;;;;;;;4962245;28;20042;-83
2022/04/20 13:29:48;;;;;;;2.92;1.98;;;;;;;;;;4964429;28;20058;-80
2022/04/20 13:32:17;;;;;;;2.95;2.10;;;;;;;;;;4963950;28;20035;-81
2022/04/20 13:34:43;;;;;;;2.28;1.90;;;;;;;;;;4944382;28;20047;-80
2022/04/20 13:37:13;;;;;;;3.63;2.30;;;;;;;;;;4946282;28;20178;-82
2022/04/20 13:39:39;;;;;;;3.70;2.07;;;;;;;;;;4947534;28;20047;-77
2022/04/20 13:42:05;;;;;;;3.25;1.60;;;;;;;;;;4961987;28;20399;-76
2022/04/20 13:44:32;;;;;;;4.13;2.53;;;;;;;;;;4945671;28;20399;-80
2022/04/20 13:46:58;;;;;;;1.85;1.45;;;;;;;;;;4963063;28;20049;-79
2022/04/20 13:49:25;;;;;;;2.97;1.70;;;;;;;;;;4946909;28;20052;-78
2022/04/20 13:51:51;;;;;;;3.00;2.08;;;;;;;;;;4948085;28;20035;-79
2022/04/20 13:54:17;;;;;;;2.17;1.75;;;;;;;;;;4945876;28;20514;-83
2022/04/20 13:56:43;;;;;;;3.40;2.20;;;;;;;;;;4961125;28;20138;-79
2022/04/20 13:59:13;;;;;;;1.92;1.48;;;;;;;;;;4946522;28;20580;-82
2022/04/20 14:01:39;;;;;;;3.95;1.65;;;;;;;;;;4946188;28;20043;-79
2022/04/20 14:04:05;;;;;;;3.72;2.10;;;;;;;;;;4946476;28;20046;-80
2022/04/20 14:06:30;;;;;;;1.77;1.63;;;;;;;;;;4945983;28;20062;-78
2022/04/20 14:08:57;;;;;;;4.15;1.95;;;;;;;;;;4944544;28;20043;-78
2022/04/20 14:11:23;;;;;;;4.78;2.13;;;;;;;;;;4960928;28;20118;-78
2022/04/20 14:13:50;;;;;;;2.97;2.20;;;;;;;;;;4946179;28;20039;-80
2022/04/20 14:16:16;;;;;;;2.90;2.70;;;;;;;;;;4945539;28;20042;-79
2022/04/20 14:18:42;;;;;;;3.28;2.38;;;;;;;;;;4946689;28;20101;-80
2022/04/20 14:21:08;;;;;;;4.95;2.80;;;;;;;;;;4947154;28;20050;-75
2022/04/20 14:23:34;;;;;;;3.75;2.70;;;;;;;;;;4963437;28;20051;-80
2022/04/20 14:34:18;;;;;;;4.32;3.13;;;;;;;;;;4960158;28;20514;-82
2022/04/20 14:36:44;;;;;;;2.97;2.58;;;;;;;;;;4967348;28;20125;-80
2022/04/20 14:39:10;;;;;;;4.75;3.35;;;;;;;;;;4944413;28;20596;-80
2022/04/20 14:41:36;;;;;;;3.95;3.05;;;;;;;;;;4960038;28;20058;-81
2022/04/20 14:44:02;;;;;;;5.65;3.10;;;;;;;;;;4966260;28;20121;-78
2022/04/20 14:46:28;;;;;;;6.50;3.30;;;;;;;;;;4960545;28;20411;-84
2022/04/20 14:48:55;;;;;;;6.82;3.38;;;;;;;;;;4960767;28;20082;-79
2022/04/20 14:51:22;;;;;;;4.78;3.17;;;;;;;;;;4942883;28;20038;-77
2022/04/20 14:53:50;;;;;;;4.00;2.90;;;;;;;;;;4966420;28;20053;-80
2022/04/20 14:56:16;;;;;;;4.72;3.17;;;;;;;;;;4956684;28;20462;-79
2022/04/20 14:58:43;;;;;;;4.88;3.00;;;;;;;;;;4959338;28;20035;-79
2022/04/20 15:01:09;;;;;;;3.88;3.10;;;;;;;;;;4974825;28;20030;-78
2022/04/20 15:03:35;;;;;;;4.30;3.30;;;;;;;;;;4961356;28;20089;-80
2022/04/20 15:06:01;;;;;;;6.28;4.13;;;;;;;;;;4944065;28;20066;-80
2022/04/20 15:08:27;;;;;;;6.88;4.07;;;;;;;;;;4960560;28;20168;-79
2022/04/20 15:10:56;;;;;;;4.20;3.33;;;;;;;;;;4940994;28;20506;-85
2022/04/20 15:13:23;;;;;;;7.25;4.03;;;;;;;;;;4959611;28;20043;-84
2022/04/20 15:15:48;;;;;;;5.43;3.63;;;;;;;;;;4943997;28;20392;-82
2022/04/20 15:18:15;;;;;;;4.50;3.33;;;;;;;;;;4943070;28;20054;-81
2022/04/20 15:20:41;;;;;;;4.57;2.83;;;;;;;;;;4944138;28;20411;-80
2022/04/20 15:23:08;;;;;;;4.25;3.45;;;;;;;;;;4942918;28;20050;-82
2022/04/20 15:25:34;;;;;;;4.35;3.17;;;;;;;;;;4940996;28;20045;-81
2022/04/20 15:28:02;;;;;;;8.65;3.85;;;;;;;;;;4959551;28;20086;-78